Time;durP1;ratioP1;P1;durP2;ratioP2;P2;SDS_P1;SDS_P2;PMS_P1;PMS_P2;Temp;Humidity;BMP_temperature;BMP_pressure;BME280_temperature;BME280_humidity;BME280_pressure;Samples;Min_cycle;Max_cycle;Signal;HPM_P1;HPM_P2
2022/08/10 00:01:39;;;;;;;1.33;0.60;;;23.80;69.30;;;;;;5038755;28;45417;-68
2022/08/10 00:04:07;;;;;;;1.02;0.80;;;23.80;69.40;;;;;;5040385;27;45279;-69
2022/08/10 00:06:33;;;;;;;1.30;0.73;;;23.80;69.50;;;;;;5039296;28;46612;-68
2022/08/10 00:09:00;;;;;;;1.30;0.63;;;23.80;69.40;;;;;;5038490;28;46622;-68
2022/08/10 00:11:27;;;;;;;0.70;0.70;;;23.80;69.40;;;;;;5037247;28;45436;-68
2022/08/10 00:13:54;;;;;;;1.48;0.85;;;23.90;69.40;;;;;;5037222;28;45452;-68
2022/08/10 00:16:21;;;;;;;1.00;0.75;;;23.80;69.30;;;;;;5036490;28;47590;-68
2022/08/10 00:18:47;;;;;;;1.15;0.80;;;23.80;69.30;;;;;;5036663;28;45503;-68
2022/08/10 00:21:15;;;;;;;1.33;0.60;;;23.90;69.40;;;;;;5036583;27;45342;-68
2022/08/10 00:23:42;;;;;;;0.57;0.55;;;23.80;69.30;;;;;;5037395;28;45408;-69
2022/08/10 00:26:09;;;;;;;1.13;0.68;;;23.80;69.30;;;;;;5035964;28;47159;-68
2022/08/10 00:28:37;;;;;;;0.65;0.65;;;23.80;69.40;;;;;;5036265;28;45527;-69
2022/08/10 00:31:04;;;;;;;0.50;0.50;;;23.90;69.40;;;;;;5037638;27;45527;-69
2022/08/10 00:33:31;;;;;;;1.08;0.60;;;23.90;69.30;;;;;;5037765;28;45281;-68
2022/08/10 00:35:58;;;;;;;1.25;0.73;;;23.80;69.20;;;;;;5036746;28;46579;-69
2022/08/10 00:38:26;;;;;;;1.20;0.70;;;23.80;69.40;;;;;;5036498;28;45262;-69
2022/08/10 00:40:53;;;;;;;1.58;1.00;;;23.90;70.50;;;;;;5032772;27;45454;-69
2022/08/10 00:43:19;;;;;;;0.88;0.80;;;23.80;69.20;;;;;;5029765;27;45238;-67
2022/08/10 00:45:46;;;;;;;0.70;0.70;;;23.90;69.20;;;;;;5025809;28;46647;-68
2022/08/10 00:48:13;;;;;;;0.55;0.55;;;23.80;69.20;;;;;;5043039;28;45995;-68
2022/08/10 00:50:40;;;;;;;0.80;0.80;;;23.90;69.30;;;;;;5040028;28;45533;-68
2022/08/10 00:53:06;;;;;;;1.52;0.75;;;23.80;70.30;;;;;;5032421;28;45390;-70
2022/08/10 00:55:35;;;;;;;2.17;0.80;;;23.80;69.30;;;;;;5040475;27;46627;-68
2022/08/10 00:58:02;;;;;;;1.50;0.80;;;23.80;69.30;;;;;;5034019;28;45344;-68
2022/08/10 01:00:29;;;;;;;1.80;0.70;;;23.80;69.40;;;;;;5039255;28;45273;-68
2022/08/10 01:02:56;;;;;;;1.67;0.60;;;23.90;69.30;;;;;;5040821;28;45278;-68
2022/08/10 01:05:23;;;;;;;0.50;0.50;;;23.80;69.30;;;;;;5040384;27;46691;-68
2022/08/10 01:08:18;;;;;;;0.82;0.60;;;23.80;69.30;;;;;;5040283;28;46248;-68
2022/08/10 01:10:58;;;;;;;1.05;0.68;;;23.80;69.40;;;;;;5037422;28;45227;-69
2022/08/10 01:13:29;;;;;;;1.35;0.80;;;23.80;69.20;;;;;;5038025;28;45553;-69
2022/08/10 01:16:04;;;;;;;1.20;0.98;;;23.80;69.20;;;;;;5038466;28;47503;-69
2022/08/10 01:18:42;;;;;;;2.03;0.80;;;23.80;69.10;;;;;;5037030;28;45466;-69
2022/08/10 01:21:30;;;;;;;0.70;0.60;;;23.80;69.10;;;;;;5035207;28;45254;-69
2022/08/10 01:24:08;;;;;;;2.42;0.80;;;23.80;69.20;;;;;;5038681;28;45232;-69
2022/08/10 01:26:49;;;;;;;1.23;0.70;;;23.80;69.00;;;;;;5030948;27;46325;-70
2022/08/10 01:29:46;;;;;;;0.90;0.70;;;23.80;69.00;;;;;;5036384;27;45402;-69
2022/08/10 01:32:17;;;;;;;0.95;0.77;;;23.80;68.90;;;;;;5035277;28;45360;-68
2022/08/10 01:34:49;;;;;;;0.70;0.70;;;23.80;68.90;;;;;;5037357;28;45458;-68
2022/08/10 01:37:24;;;;;;;0.75;0.68;;;23.80;68.90;;;;;;5037583;28;46391;-68
2022/08/10 01:39:56;;;;;;;1.40;0.90;;;23.80;68.80;;;;;;5037496;28;45325;-68
2022/08/10 01:42:24;;;;;;;0.73;0.73;;;23.80;68.70;;;;;;5037171;28;45528;-68
2022/08/10 01:44:57;;;;;;;0.80;0.70;;;23.80;68.60;;;;;;5038481;28;45417;-68
2022/08/10 01:50:20;;;;;;;0.90;0.70;;;23.80;68.60;;;;;;5035437;28;45469;-68
2022/08/10 01:52:50;;;;;;;1.10;0.80;;;23.80;68.70;;;;;;5038237;28;45327;-69
2022/08/10 01:55:18;;;;;;;1.38;0.95;;;23.80;68.70;;;;;;5035180;28;45388;-68
2022/08/10 01:57:46;;;;;;;1.10;0.60;;;23.80;68.80;;;;;;5036346;27;47656;-68
2022/08/10 02:00:15;;;;;;;1.55;0.68;;;23.80;69.10;;;;;;5033993;28;45418;-68
2022/08/10 02:02:43;;;;;;;0.85;0.60;;;23.80;69.20;;;;;;5035953;28;45665;-69
2022/08/10 02:05:11;;;;;;;0.50;0.50;;;23.80;69.20;;;;;;5035757;28;45357;-69
2022/08/10 02:07:41;;;;;;;1.00;0.70;;;23.80;69.20;;;;;;5034875;28;45276;-68
2022/08/10 02:10:11;;;;;;;0.57;0.57;;;23.80;69.10;;;;;;5034894;28;45554;-69
2022/08/10 02:12:40;;;;;;;1.15;0.95;;;23.80;69.10;;;;;;5035791;28;45586;-69
2022/08/10 02:15:12;;;;;;;1.35;0.80;;;23.80;69.10;;;;;;5036064;28;45386;-69
2022/08/10 02:17:45;;;;;;;0.73;0.70;;;23.80;69.00;;;;;;5034043;28;46405;-68
2022/08/10 02:20:16;;;;;;;0.95;0.70;;;23.80;68.90;;;;;;5032724;28;46020;-68
2022/08/10 02:22:45;;;;;;;1.80;0.70;;;23.80;68.90;;;;;;5037053;28;45454;-68
2022/08/10 02:25:14;;;;;;;0.80;0.80;;;23.70;68.70;;;;;;5036812;28;45419;-68
2022/08/10 02:27:42;;;;;;;0.55;0.55;;;23.80;68.70;;;;;;5030989;27;47959;-68
2022/08/10 02:30:10;;;;;;;0.68;0.60;;;23.80;68.80;;;;;;5034237;27;45812;-68
2022/08/10 02:32:38;;;;;;;0.70;0.70;;;23.70;68.60;;;;;;5034056;28;45375;-68
2022/08/10 02:35:10;;;;;;;0.93;0.80;;;23.70;68.70;;;;;;5035124;28;45306;-69
2022/08/10 02:37:39;;;;;;;0.73;0.68;;;23.70;68.70;;;;;;5033094;27;46154;-69
2022/08/10 02:40:07;;;;;;;0.88;0.80;;;23.70;68.50;;;;;;5032716;28;45470;-68
2022/08/10 02:42:43;;;;;;;1.42;0.88;;;23.70;68.50;;;;;;5042722;28;45414;-68
2022/08/10 02:45:16;;;;;;;0.77;0.70;;;23.70;68.50;;;;;;5036601;28;45249;-68
2022/08/10 02:47:47;;;;;;;0.60;0.60;;;23.70;68.50;;;;;;5031079;27;46339;-69
2022/08/10 02:50:22;;;;;;;0.80;0.70;;;23.70;68.70;;;;;;5049898;28;45317;-69
2022/08/10 02:52:54;;;;;;;1.13;0.80;;;23.70;68.90;;;;;;5044600;28;45326;-68
2022/08/10 02:55:25;;;;;;;1.70;0.80;;;23.70;68.60;;;;;;5044649;28;45404;-68
2022/08/10 02:57:56;;;;;;;0.50;0.50;;;23.70;68.80;;;;;;5037230;28;48289;-68
2022/08/10 03:00:24;;;;;;;2.08;0.90;;;23.70;68.80;;;;;;5044994;28;45261;-68
2022/08/10 03:02:53;;;;;;;3.08;0.90;;;23.70;68.80;;;;;;5044765;28;45444;-68
2022/08/10 03:05:21;;;;;;;1.00;0.80;;;23.70;68.80;;;;;;5045748;28;45356;-68
2022/08/10 03:07:58;;;;;;;1.42;0.70;;;23.70;68.90;;;;;;5043599;28;46331;-68
2022/08/10 03:10:28;;;;;;;1.02;0.93;;;23.70;68.70;;;;;;5038114;28;45323;-68
2022/08/10 03:12:57;;;;;;;0.73;0.60;;;23.70;68.70;;;;;;5044068;28;45466;-68
2022/08/10 03:15:27;;;;;;;0.88;0.80;;;23.70;68.70;;;;;;5040344;27;45382;-68
2022/08/10 03:17:54;;;;;;;0.80;0.75;;;23.70;68.50;;;;;;5032104;28;48305;-68
2022/08/10 03:20:24;;;;;;;1.15;0.88;;;23.70;68.60;;;;;;5037365;28;45232;-68
2022/08/10 03:22:52;;;;;;;0.73;0.70;;;23.70;68.60;;;;;;5043499;28;45582;-68
2022/08/10 03:25:23;;;;;;;0.98;0.70;;;23.70;68.50;;;;;;5041981;28;45286;-68
2022/08/10 03:27:51;;;;;;;1.00;0.80;;;23.70;68.50;;;;;;5042024;27;45461;-68
2022/08/10 03:30:17;;;;;;;0.70;0.70;;;23.70;68.50;;;;;;5039462;27;45452;-68
2022/08/10 03:32:45;;;;;;;1.65;0.90;;;23.70;68.50;;;;;;5041739;28;45446;-68
2022/08/10 03:35:12;;;;;;;1.65;0.93;;;23.70;68.50;;;;;;5052040;28;45454;-69
2022/08/10 03:37:41;;;;;;;1.27;0.75;;;23.70;68.50;;;;;;5042812;27;45405;-68
2022/08/10 03:40:09;;;;;;;0.93;0.65;;;23.70;68.50;;;;;;5039750;28;45452;-68
2022/08/10 03:42:38;;;;;;;1.65;1.00;;;23.70;68.50;;;;;;5042649;28;45231;-68
2022/08/10 03:45:07;;;;;;;0.50;0.50;;;23.70;68.50;;;;;;5040769;28;45372;-69
2022/08/10 03:47:38;;;;;;;0.90;0.85;;;23.70;68.60;;;;;;5046023;28;48014;-68
2022/08/10 03:50:06;;;;;;;0.80;0.80;;;23.70;68.50;;;;;;5043638;28;45486;-69
2022/08/10 03:52:33;;;;;;;1.73;0.90;;;23.70;68.70;;;;;;5033901;28;45397;-68
2022/08/10 03:55:02;;;;;;;1.15;0.70;;;23.60;68.50;;;;;;5036975;28;45423;-68
2022/08/10 03:57:29;;;;;;;0.63;0.63;;;23.70;68.60;;;;;;5039123;28;45376;-68
2022/08/10 03:59:56;;;;;;;0.77;0.70;;;23.70;68.70;;;;;;5039150;28;46080;-68
2022/08/10 04:02:25;;;;;;;0.90;0.73;;;23.60;68.60;;;;;;5043159;28;45496;-68
2022/08/10 04:04:52;;;;;;;0.88;0.70;;;23.70;68.60;;;;;;5039751;27;45429;-68
2022/08/10 04:07:19;;;;;;;0.80;0.80;;;23.70;68.50;;;;;;5031249;28;47546;-68
2022/08/10 04:09:45;;;;;;;0.75;0.73;;;23.70;68.40;;;;;;5031358;28;45332;-68
2022/08/10 04:12:14;;;;;;;1.52;0.90;;;23.70;68.40;;;;;;5066872;27;45370;-68
2022/08/10 04:14:40;;;;;;;1.27;0.70;;;23.60;68.20;;;;;;5033818;28;45668;-68
2022/08/10 04:17:07;;;;;;;0.70;0.70;;;23.70;68.40;;;;;;5030950;28;47082;-68
2022/08/10 04:19:40;;;;;;;0.70;0.70;;;23.70;68.50;;;;;;5037872;28;45442;-68
2022/08/10 04:22:13;;;;;;;0.90;0.80;;;23.60;68.40;;;;;;5036058;28;45368;-67
2022/08/10 04:24:43;;;;;;;0.82;0.77;;;23.60;68.50;;;;;;5039253;28;45513;-68
2022/08/10 04:27:09;;;;;;;0.70;0.70;;;23.60;68.50;;;;;;5066198;27;47404;-68
2022/08/10 04:29:38;;;;;;;1.10;1.00;;;23.60;68.50;;;;;;5033030;27;45532;-68
2022/08/10 04:32:07;;;;;;;0.70;0.70;;;23.60;68.60;;;;;;5043280;28;45322;-68
2022/08/10 04:34:37;;;;;;;1.73;0.70;;;23.70;68.70;;;;;;5035888;28;45416;-68
2022/08/10 04:37:06;;;;;;;1.83;1.15;;;23.70;68.90;;;;;;5035619;28;48197;-68
2022/08/10 04:39:33;;;;;;;1.40;0.90;;;23.70;68.90;;;;;;5029560;27;45366;-67
2022/08/10 04:42:00;;;;;;;1.77;0.90;;;23.60;68.70;;;;;;5044294;28;45423;-68
2022/08/10 04:44:27;;;;;;;0.85;0.80;;;23.60;68.30;;;;;;5021674;28;45330;-67
2022/08/10 04:46:55;;;;;;;1.05;0.80;;;23.70;67.90;;;;;;5020675;28;45391;-68
2022/08/10 04:49:22;;;;;;;0.90;0.80;;;23.60;67.70;;;;;;5032853;27;45531;-68
2022/08/10 04:51:49;;;;;;;1.08;0.90;;;23.60;67.70;;;;;;5037188;28;45502;-68
2022/08/10 04:54:16;;;;;;;1.50;0.90;;;23.60;67.70;;;;;;5033660;28;45405;-69
2022/08/10 04:56:42;;;;;;;1.00;0.90;;;23.70;67.80;;;;;;5044320;28;46149;-68
2022/08/10 04:59:11;;;;;;;0.80;0.80;;;23.70;68.50;;;;;;5037541;27;45369;-68
2022/08/10 05:01:39;;;;;;;1.35;0.90;;;23.70;69.10;;;;;;5036107;28;45335;-68
2022/08/10 05:04:07;;;;;;;1.17;0.90;;;23.70;69.10;;;;;;5038152;28;45323;-68
2022/08/10 05:06:34;;;;;;;1.27;0.90;;;23.70;69.10;;;;;;5031534;27;47106;-68
2022/08/10 05:09:01;;;;;;;2.17;0.80;;;23.70;69.10;;;;;;5038148;27;45355;-69
2022/08/10 05:11:27;;;;;;;0.85;0.70;;;23.70;69.10;;;;;;5038463;28;45399;-68
2022/08/10 05:13:54;;;;;;;0.70;0.70;;;23.70;69.10;;;;;;5039378;28;45268;-68
2022/08/10 05:16:21;;;;;;;1.42;1.00;;;23.70;69.10;;;;;;5036021;28;47526;-68
2022/08/10 05:18:48;;;;;;;1.27;0.95;;;23.70;69.10;;;;;;5032726;28;45323;-68
2022/08/10 05:21:16;;;;;;;1.00;0.80;;;23.70;69.10;;;;;;5037325;28;45564;-68
2022/08/10 05:23:43;;;;;;;1.98;1.00;;;23.70;69.10;;;;;;5037209;28;45596;-69
2022/08/10 05:26:09;;;;;;;1.17;0.80;;;23.80;69.20;;;;;;5037362;28;45630;-68
2022/08/10 05:28:36;;;;;;;1.20;1.10;;;23.70;69.10;;;;;;5037737;28;45374;-67
2022/08/10 05:31:03;;;;;;;1.42;0.90;;;23.70;69.10;;;;;;5036587;28;45534;-68
2022/08/10 05:33:30;;;;;;;1.13;0.90;;;23.70;69.10;;;;;;5037159;27;45439;-68
2022/08/10 05:35:59;;;;;;;1.35;1.08;;;23.70;69.00;;;;;;5037605;27;47340;-68
2022/08/10 05:38:28;;;;;;;1.00;0.90;;;23.70;69.00;;;;;;5037339;28;46061;-68
2022/08/10 05:40:57;;;;;;;1.15;0.80;;;23.80;69.10;;;;;;5032845;28;45294;-68
2022/08/10 05:43:24;;;;;;;1.52;1.10;;;23.70;69.00;;;;;;5038102;27;45544;-68
2022/08/10 05:45:52;;;;;;;1.83;1.00;;;23.70;69.00;;;;;;5036629;28;46590;-68
2022/08/10 05:48:18;;;;;;;1.42;1.15;;;23.80;69.10;;;;;;5036138;28;45322;-68
2022/08/10 05:50:45;;;;;;;1.58;1.00;;;23.70;69.10;;;;;;5037311;28;45506;-67
2022/08/10 05:53:12;;;;;;;2.75;1.00;;;23.70;69.00;;;;;;5037600;27;45386;-68
2022/08/10 05:55:40;;;;;;;2.67;1.30;;;23.70;69.00;;;;;;5046622;27;45602;-68
2022/08/10 05:58:07;;;;;;;1.75;1.17;;;23.70;69.00;;;;;;5042720;28;46218;-69
2022/08/10 06:00:38;;;;;;;1.67;1.10;;;23.70;69.10;;;;;;5037470;27;45517;-68
2022/08/10 06:03:08;;;;;;;2.60;1.30;;;23.70;69.10;;;;;;5034864;28;45494;-68
2022/08/10 06:05:39;;;;;;;1.95;1.00;;;23.70;69.10;;;;;;5033529;27;45807;-68
2022/08/10 06:08:13;;;;;;;1.35;1.00;;;23.70;69.20;;;;;;5036680;28;45324;-68
2022/08/10 06:10:43;;;;;;;1.70;1.20;;;23.70;69.20;;;;;;5036826;28;45516;-68
2022/08/10 06:15:57;;;;;;;1.52;1.10;;;23.80;70.50;;;;;;5035582;28;45406;-69
2022/08/10 06:18:24;;;;;;;2.72;1.23;;;23.70;69.50;;;;;;5035638;28;45360;-69
2022/08/10 06:20:51;;;;;;;2.53;1.27;;;23.70;69.50;;;;;;5036448;28;45343;-68
2022/08/10 06:23:18;;;;;;;1.98;1.20;;;23.70;69.50;;;;;;5034266;28;45794;-69
2022/08/10 06:25:47;;;;;;;2.25;1.40;;;23.70;69.50;;;;;;5034286;28;46939;-68
2022/08/10 06:28:16;;;;;;;1.20;1.00;;;23.80;69.60;;;;;;5035218;28;45438;-68
2022/08/10 06:30:46;;;;;;;1.58;1.25;;;23.70;69.50;;;;;;5035805;28;45311;-68
2022/08/10 06:33:13;;;;;;;1.83;1.35;;;23.80;69.60;;;;;;5034393;28;45364;-68
2022/08/10 06:35:41;;;;;;;1.48;1.08;;;23.70;69.60;;;;;;5035837;28;47087;-68
2022/08/10 06:38:09;;;;;;;2.58;1.30;;;23.80;69.70;;;;;;5036047;27;45435;-68
2022/08/10 06:40:39;;;;;;;1.75;1.00;;;23.70;70.60;;;;;;5033803;27;45461;-67
2022/08/10 06:43:11;;;;;;;3.30;1.42;;;23.80;70.80;;;;;;5034102;28;45518;-68
2022/08/10 06:45:42;;;;;;;1.67;1.25;;;23.70;69.70;;;;;;5034063;27;46450;-68
2022/08/10 06:48:16;;;;;;;1.85;1.10;;;23.80;69.80;;;;;;5034923;28;45927;-68
2022/08/10 06:50:47;;;;;;;1.83;1.20;;;23.80;69.90;;;;;;5034684;27;45473;-68
2022/08/10 06:53:17;;;;;;;1.80;1.20;;;23.80;69.90;;;;;;5037465;27;45402;-68
2022/08/10 06:55:51;;;;;;;2.47;1.50;;;23.80;69.90;;;;;;5037651;28;46275;-69
2022/08/10 06:58:21;;;;;;;1.58;1.10;;;23.80;69.90;;;;;;5034370;27;45425;-68
2022/08/10 07:00:51;;;;;;;1.33;1.00;;;23.80;69.90;;;;;;5036007;28;45400;-68
2022/08/10 07:03:20;;;;;;;1.60;1.10;;;23.80;69.90;;;;;;5035094;28;45476;-68
2022/08/10 07:05:50;;;;;;;1.65;1.10;;;23.80;69.90;;;;;;5035963;27;48749;-68
2022/08/10 07:08:19;;;;;;;1.60;1.00;;;23.80;70.00;;;;;;5031498;28;45433;-68
2022/08/10 07:10:47;;;;;;;2.60;1.40;;;23.80;70.00;;;;;;5033894;28;45474;-68
2022/08/10 07:13:16;;;;;;;3.53;1.30;;;23.80;70.00;;;;;;5034914;28;45236;-69
2022/08/10 07:15:46;;;;;;;3.90;1.30;;;23.80;70.00;;;;;;5034689;28;45389;-68
2022/08/10 07:18:13;;;;;;;1.23;1.00;;;23.80;70.00;;;;;;5036217;28;45758;-68
2022/08/10 07:20:41;;;;;;;1.60;1.10;;;23.80;70.00;;;;;;5037264;28;45477;-68
2022/08/10 07:23:11;;;;;;;2.55;1.33;;;23.80;70.00;;;;;;5035436;28;45573;-69
2022/08/10 07:25:40;;;;;;;15.95;2.42;;;23.80;70.10;;;;;;5036579;28;48809;-68
2022/08/10 07:28:07;;;;;;;20.80;2.13;;;23.80;70.80;;;;;;5036319;28;45483;-68
2022/08/10 07:30:38;;;;;;;12.50;1.70;;;23.80;70.50;;;;;;5039091;27;45504;-68
2022/08/10 07:33:08;;;;;;;4.18;1.20;;;23.90;70.40;;;;;;5034113;27;45417;-68
2022/08/10 07:35:36;;;;;;;3.60;1.20;;;23.80;70.20;;;;;;5031747;27;46843;-68
2022/08/10 07:38:05;;;;;;;2.15;1.20;;;23.80;70.00;;;;;;5036266;28;45438;-68
2022/08/10 07:40:34;;;;;;;2.00;1.13;;;23.80;70.10;;;;;;5032092;28;45313;-68
2022/08/10 07:43:02;;;;;;;5.13;1.35;;;23.80;70.00;;;;;;5037090;28;45513;-68
2022/08/10 07:45:33;;;;;;;1.90;1.15;;;23.80;69.90;;;;;;5036941;28;46406;-69
2022/08/10 07:48:03;;;;;;;1.58;1.20;;;23.80;69.90;;;;;;5047183;27;45486;-68
2022/08/10 07:50:31;;;;;;;1.45;0.95;;;23.80;69.80;;;;;;5042034;28;45241;-68
2022/08/10 07:53:02;;;;;;;2.55;1.30;;;23.80;69.80;;;;;;5039441;28;45446;-68
2022/08/10 07:55:30;;;;;;;1.83;1.20;;;23.80;69.80;;;;;;5037683;28;47845;-68
2022/08/10 07:58:00;;;;;;;3.13;1.30;;;23.80;69.70;;;;;;5037346;28;45356;-68
2022/08/10 08:00:28;;;;;;;5.00;1.63;;;23.80;69.70;;;;;;5032140;28;45450;-68
2022/08/10 08:02:58;;;;;;;1.98;1.10;;;23.80;69.70;;;;;;5038193;28;45572;-68
2022/08/10 08:05:27;;;;;;;2.30;1.10;;;23.80;69.70;;;;;;5036707;27;45496;-69
2022/08/10 08:07:57;;;;;;;3.30;0.90;;;23.80;69.80;;;;;;5037597;27;45458;-68
2022/08/10 08:10:27;;;;;;;3.40;1.13;;;23.80;69.70;;;;;;5037507;28;45469;-68
2022/08/10 08:12:56;;;;;;;1.25;1.10;;;23.80;69.80;;;;;;5037742;28;45458;-69
2022/08/10 08:15:25;;;;;;;1.48;1.13;;;23.80;69.70;;;;;;5036041;27;47606;-69
2022/08/10 08:17:53;;;;;;;2.42;1.20;;;23.80;69.70;;;;;;5042036;28;46188;-69
2022/08/10 08:20:21;;;;;;;1.10;1.00;;;23.80;69.60;;;;;;5042301;27;45574;-68
2022/08/10 08:22:49;;;;;;;2.72;1.27;;;23.90;69.80;;;;;;5039115;28;45401;-68
2022/08/10 08:25:18;;;;;;;1.95;1.38;;;23.90;69.70;;;;;;5036182;28;45321;-68
2022/08/10 08:27:51;;;;;;;2.10;0.90;;;23.90;69.70;;;;;;5036639;27;45293;-68
2022/08/10 08:30:20;;;;;;;1.20;1.08;;;23.90;69.60;;;;;;5041117;27;45516;-68
2022/08/10 08:32:48;;;;;;;2.17;1.05;;;23.90;69.60;;;;;;5046019;27;45488;-68
2022/08/10 08:35:17;;;;;;;2.05;1.15;;;23.90;69.60;;;;;;5037070;28;47089;-69
2022/08/10 08:37:46;;;;;;;1.27;0.90;;;23.90;69.50;;;;;;5038596;28;45824;-68
2022/08/10 08:40:15;;;;;;;1.25;0.90;;;23.90;69.50;;;;;;5036972;28;45269;-68
2022/08/10 08:43:13;;;;;;;1.98;1.10;;;23.90;69.50;;;;;;5036652;28;45351;-68
2022/08/10 08:45:48;;;;;;;1.70;1.08;;;23.90;69.50;;;;;;5033593;27;45465;-69
2022/08/10 08:48:32;;;;;;;1.27;1.08;;;23.90;69.40;;;;;;5033611;27;46399;-68
2022/08/10 08:51:11;;;;;;;1.90;1.15;;;24.00;70.20;;;;;;5045727;28;45436;-68
2022/08/10 08:53:50;;;;;;;2.72;1.33;;;24.00;72.10;;;;;;5042073;27;45413;-69
2022/08/10 08:56:25;;;;;;;1.27;1.00;;;24.00;72.70;;;;;;5034992;28;45234;-69
2022/08/10 08:59:07;;;;;;;1.63;1.10;;;24.00;73.00;;;;;;5040999;27;45413;-68
2022/08/10 09:01:48;;;;;;;1.27;0.90;;;24.00;73.00;;;;;;5031688;28;45264;-68
2022/08/10 09:04:28;;;;;;;1.38;1.10;;;23.90;73.30;;;;;;5038143;27;45273;-68
2022/08/10 09:07:11;;;;;;;2.50;1.13;;;23.90;73.90;;;;;;5034621;28;45289;-68
2022/08/10 09:10:03;;;;;;;1.63;1.10;;;23.90;74.50;;;;;;5031594;28;45319;-68
2022/08/10 09:12:43;;;;;;;2.10;1.20;;;23.90;75.30;;;;;;5036508;28;45615;-68
2022/08/10 09:15:23;;;;;;;1.63;1.10;;;23.90;75.60;;;;;;5030354;28;45518;-69
2022/08/10 09:17:59;;;;;;;1.42;0.98;;;23.80;76.10;;;;;;5036143;28;45335;-68
2022/08/10 09:20:33;;;;;;;1.10;0.98;;;23.80;76.40;;;;;;5037478;28;45277;-69
2022/08/10 09:23:08;;;;;;;1.15;0.95;;;23.80;77.10;;;;;;5032711;27;45359;-68
2022/08/10 09:25:37;;;;;;;2.67;1.05;;;23.80;77.10;;;;;;5033977;27;45593;-68
2022/08/10 09:28:07;;;;;;;2.42;0.98;;;23.80;77.60;;;;;;5041853;28;46421;-70
2022/08/10 09:30:46;;;;;;;1.80;1.30;;;23.80;78.00;;;;;;5030269;27;45404;-68
2022/08/10 09:33:16;;;;;;;2.17;1.05;;;23.80;78.40;;;;;;5042301;27;45346;-68
2022/08/10 09:35:53;;;;;;;1.63;1.10;;;23.80;78.20;;;;;;5041494;28;45569;-69
2022/08/10 09:38:30;;;;;;;1.15;1.00;;;23.80;79.00;;;;;;5034293;28;46188;-68
2022/08/10 09:41:16;;;;;;;1.35;1.20;;;23.80;79.10;;;;;;5040532;28;45352;-68
2022/08/10 09:43:52;;;;;;;1.20;1.10;;;23.70;78.80;;;;;;5032265;28;45286;-69
2022/08/10 09:46:43;;;;;;;2.63;1.08;;;23.70;79.10;;;;;;5035045;27;45488;-69
2022/08/10 09:49:19;;;;;;;1.00;0.90;;;23.70;79.10;;;;;;5036450;28;46294;-68
2022/08/10 09:51:56;;;;;;;2.97;1.10;;;23.70;79.00;;;;;;5041066;27;45389;-68
2022/08/10 09:54:48;;;;;;;1.85;1.40;;;23.70;79.20;;;;;;5037061;27;45638;-68
2022/08/10 09:57:20;;;;;;;2.28;1.20;;;23.70;79.40;;;;;;5037566;27;45462;-69
2022/08/10 09:59:55;;;;;;;1.88;1.30;;;23.70;79.50;;;;;;5037530;28;45303;-69
2022/08/10 10:02:27;;;;;;;1.90;1.23;;;23.80;79.50;;;;;;5032280;28;45938;-68
2022/08/10 10:05:04;;;;;;;1.52;1.20;;;23.70;79.90;;;;;;5036551;28;45420;-69
2022/08/10 10:07:31;;;;;;;1.55;1.00;;;23.80;80.80;;;;;;5037944;27;45381;-69
2022/08/10 10:10:02;;;;;;;2.10;1.20;;;23.80;80.60;;;;;;5048828;28;47756;-68
2022/08/10 10:12:38;;;;;;;1.83;1.38;;;23.70;80.60;;;;;;5040154;28;45813;-70
2022/08/10 10:15:21;;;;;;;1.48;1.13;;;23.70;80.90;;;;;;5034397;28;45414;-68
2022/08/10 10:18:13;;;;;;;1.20;0.93;;;23.70;81.10;;;;;;5032951;27;45522;-68
2022/08/10 10:20:52;;;;;;;2.13;1.30;;;23.70;81.40;;;;;;5031216;27;47475;-68
2022/08/10 10:23:42;;;;;;;1.42;1.20;;;23.70;80.70;;;;;;5037016;28;45404;-68
2022/08/10 10:26:19;;;;;;;1.42;1.30;;;23.70;80.80;;;;;;5035935;28;45396;-68
2022/08/10 10:28:59;;;;;;;1.70;1.08;;;23.70;80.70;;;;;;5039154;28;45448;-68
2022/08/10 10:31:30;;;;;;;2.13;1.33;;;23.70;80.80;;;;;;5039230;28;46571;-69
2022/08/10 10:34:08;;;;;;;1.27;1.00;;;23.70;81.40;;;;;;5037632;28;45495;-68
2022/08/10 10:36:37;;;;;;;1.40;1.20;;;23.70;81.40;;;;;;5039928;27;45420;-68
2022/08/10 10:39:05;;;;;;;1.23;1.10;;;23.70;81.40;;;;;;5039102;27;45547;-69
2022/08/10 10:41:40;;;;;;;1.50;1.27;;;23.70;81.40;;;;;;5041705;27;46437;-69
2022/08/10 10:44:19;;;;;;;1.48;1.20;;;23.70;81.40;;;;;;5031360;27;45466;-69
2022/08/10 10:46:55;;;;;;;1.25;1.15;;;23.70;81.40;;;;;;5034234;28;45407;-68
2022/08/10 10:49:42;;;;;;;1.02;0.93;;;23.70;81.40;;;;;;5038354;27;45661;-68
2022/08/10 10:52:19;;;;;;;1.33;1.17;;;23.70;82.10;;;;;;5034139;27;46547;-68
2022/08/10 10:54:57;;;;;;;1.80;1.20;;;23.70;82.60;;;;;;5067012;27;45397;-69
2022/08/10 10:57:29;;;;;;;1.40;1.15;;;23.70;82.70;;;;;;5033218;27;45591;-68
2022/08/10 11:00:03;;;;;;;1.30;1.08;;;23.70;82.50;;;;;;5036010;27;45267;-68
2022/08/10 11:02:43;;;;;;;2.03;1.30;;;23.70;82.90;;;;;;5039127;28;46274;-68
2022/08/10 11:05:22;;;;;;;1.08;0.98;;;23.70;82.70;;;;;;5039494;27;45277;-68
2022/08/10 11:07:56;;;;;;;3.85;1.27;;;23.70;82.60;;;;;;5033908;27;45609;-69
2022/08/10 11:10:29;;;;;;;1.48;1.20;;;23.70;82.70;;;;;;5034720;27;45453;-69
2022/08/10 11:13:11;;;;;;;1.90;1.17;;;23.70;82.50;;;;;;5031231;28;48482;-68
2022/08/10 11:15:48;;;;;;;1.33;1.00;;;23.70;82.80;;;;;;5027175;28;45442;-69
2022/08/10 11:18:22;;;;;;;2.25;1.08;;;23.70;83.00;;;;;;5031265;28;45560;-68
2022/08/10 11:21:00;;;;;;;1.00;1.00;;;23.70;82.90;;;;;;5031128;28;45333;-68
2022/08/10 11:23:36;;;;;;;1.85;1.10;;;23.70;82.90;;;;;;5039282;28;46310;-68
2022/08/10 11:26:10;;;;;;;1.60;1.30;;;23.70;83.00;;;;;;5037557;27;45445;-68
2022/08/10 11:28:43;;;;;;;1.60;1.10;;;23.70;83.10;;;;;;5033565;28;45384;-68
2022/08/10 11:31:19;;;;;;;2.10;1.20;;;23.70;83.10;;;;;;5037081;28;45364;-69
2022/08/10 11:33:53;;;;;;;2.03;1.48;;;23.70;83.10;;;;;;5039856;28;46561;-68
2022/08/10 11:36:29;;;;;;;1.60;1.42;;;23.70;83.30;;;;;;5038544;28;45544;-69
2022/08/10 11:39:05;;;;;;;1.30;1.10;;;23.70;83.00;;;;;;5039961;28;45269;-69
2022/08/10 11:41:40;;;;;;;2.42;1.00;;;23.70;82.80;;;;;;5030765;27;45332;-68
2022/08/10 11:44:11;;;;;;;1.10;1.00;;;23.70;83.30;;;;;;5029266;28;45635;-69
2022/08/10 11:46:46;;;;;;;1.20;1.10;;;23.70;83.50;;;;;;5039305;28;46147;-68
2022/08/10 11:49:17;;;;;;;1.48;1.38;;;23.70;83.50;;;;;;5032047;28;45384;-68
2022/08/10 11:51:49;;;;;;;1.52;1.30;;;23.70;83.80;;;;;;5036448;28;45315;-68
2022/08/10 11:54:25;;;;;;;1.45;1.33;;;23.70;83.70;;;;;;5031747;27;46391;-69
2022/08/10 11:56:54;;;;;;;1.27;1.10;;;23.70;83.60;;;;;;5038979;28;45346;-69
2022/08/10 12:02:12;;;;;;;1.95;1.27;;;23.70;83.20;;;;;;5036371;28;45440;-68
2022/08/10 12:04:41;;;;;;;1.42;1.33;;;23.70;83.70;;;;;;5038089;28;47033;-68
2022/08/10 12:07:11;;;;;;;1.40;1.10;;;23.70;83.20;;;;;;5037330;28;45425;-69
2022/08/10 12:09:38;;;;;;;1.20;1.00;;;23.70;83.60;;;;;;5037849;28;45434;-69
2022/08/10 12:12:07;;;;;;;2.20;1.55;;;23.70;83.80;;;;;;5038834;28;45397;-69
2022/08/10 12:14:38;;;;;;;1.60;1.50;;;23.70;83.30;;;;;;5037275;28;46569;-69
2022/08/10 12:17:12;;;;;;;1.27;1.10;;;23.70;83.70;;;;;;5035412;28;45419;-68
2022/08/10 12:19:45;;;;;;;1.67;1.13;;;23.70;83.30;;;;;;5037276;28;45393;-68
2022/08/10 12:22:20;;;;;;;1.63;1.25;;;23.70;83.50;;;;;;5034379;28;45385;-68
2022/08/10 12:24:51;;;;;;;2.10;1.20;;;23.70;83.40;;;;;;5034888;27;47073;-68
2022/08/10 12:27:23;;;;;;;1.60;1.17;;;23.70;83.70;;;;;;5038055;28;45243;-69
2022/08/10 12:29:56;;;;;;;1.65;1.40;;;23.70;83.40;;;;;;5038433;28;45322;-69
2022/08/10 12:32:30;;;;;;;1.52;1.35;;;23.70;83.10;;;;;;5036958;28;45620;-68
2022/08/10 12:35:06;;;;;;;1.20;1.00;;;23.70;83.10;;;;;;5035848;28;45331;-68
2022/08/10 12:37:45;;;;;;;0.98;0.88;;;23.70;83.10;;;;;;5031164;28;45463;-68
2022/08/10 12:40:18;;;;;;;1.30;1.15;;;23.70;83.40;;;;;;5038108;28;45419;-68
2022/08/10 12:42:50;;;;;;;1.50;1.30;;;23.70;83.10;;;;;;5037536;28;45458;-69
2022/08/10 12:45:25;;;;;;;1.30;1.20;;;23.70;84.40;;;;;;5035061;28;45497;-68
2022/08/10 12:47:59;;;;;;;1.25;1.15;;;23.70;83.20;;;;;;5032258;28;45590;-69
2022/08/10 12:50:34;;;;;;;1.35;1.10;;;23.70;83.40;;;;;;5035846;28;45366;-68
2022/08/10 12:53:11;;;;;;;1.10;1.00;;;23.70;83.00;;;;;;5036674;28;45541;-69
2022/08/10 12:55:39;;;;;;;1.35;1.15;;;23.70;82.60;;;;;;5032447;28;47616;-68
2022/08/10 12:58:08;;;;;;;1.73;1.30;;;23.70;82.80;;;;;;5028705;28;45420;-68
2022/08/10 13:00:37;;;;;;;1.30;1.15;;;23.70;82.80;;;;;;5035743;28;45299;-68
2022/08/10 13:03:06;;;;;;;1.35;1.13;;;23.70;82.70;;;;;;5037980;28;45455;-68
2022/08/10 13:05:34;;;;;;;1.63;1.13;;;23.70;82.90;;;;;;5031264;28;45534;-68
2022/08/10 13:10:53;;;;;;;1.83;1.30;;;23.80;83.50;;;;;;5031633;28;45358;-69
2022/08/10 13:13:24;;;;;;;1.45;1.25;;;23.70;83.10;;;;;;5040767;27;45686;-69
2022/08/10 13:15:56;;;;;;;1.10;1.00;;;23.70;82.50;;;;;;5039722;28;45448;-69
2022/08/10 13:18:26;;;;;;;1.75;1.20;;;23.70;83.10;;;;;;5037325;27;45415;-69